Upper Greasewood Trading Pos, Arizona
Current Conditions -  °F | °C
As of 10:53 AM on Friday 19 Dec 2014 (Local Time) from KRQE Reporting Station
Clear Clear  
Wind Chill: 36°   Ceiling: Unl
Heat Index: 36°   Visibility: 10mi
Dew Point: 24°   Wind: 3mph
Humidity: 62%   Direction: 360°N
Pressure: 30.26"   Gusts: NA
Location:  36.4446°N, 109.262°W
Report Text: KRQE 191753Z AUTO 36003KT 10SM CLR 02/M04 A3026 RMK AO2 SLP238 T00221044 10022 21078 50005 TSNO
Loading
Personal Weather Stations






























Interactive Weather Map New forecast layout! Learn more

10-Day Weather Forecast

Advertisements
Track Severe Weather on mobile